createdAt,value
2023-02-02T00:01:21.798Z,22.40
2023-02-02T00:03:23.158Z,22.85
2023-02-02T00:05:24.798Z,22.72
2023-02-02T00:07:26.334Z,22.00
2023-02-02T00:09:28.989Z,22.40
2023-02-02T00:11:30.455Z,22.22
2023-02-02T00:13:31.747Z,22.17
2023-02-02T00:15:33.042Z,22.51
2023-02-02T00:17:35.357Z,22.40
2023-02-02T00:19:36.694Z,22.46
2023-02-02T00:21:38.268Z,22.39
2023-02-02T00:23:39.654Z,22.35
2023-02-02T00:25:40.958Z,22.33
2023-02-02T00:27:42.296Z,22.34
2023-02-02T00:29:43.656Z,22.69
2023-02-02T00:31:45.095Z,23.19
2023-02-02T00:33:46.422Z,22.73
2023-02-02T00:35:47.722Z,22.48
2023-02-02T00:37:49.010Z,21.95
2023-02-02T00:39:50.335Z,22.04
2023-02-02T00:41:51.641Z,22.21
2023-02-02T00:44:11.875Z,22.38
2023-02-02T00:46:13.168Z,22.45
2023-02-02T00:48:14.480Z,22.51
2023-02-02T00:50:15.873Z,22.49
2023-02-02T00:52:17.165Z,22.48
2023-02-02T00:54:18.457Z,21.80
2023-02-02T00:56:19.846Z,19.32
2023-02-02T00:58:21.135Z,18.91
2023-02-02T01:00:23.650Z,19.83
2023-02-02T01:02:24.981Z,20.47
2023-02-02T01:04:26.300Z,20.79
2023-02-02T01:06:27.682Z,20.95
2023-02-02T01:08:29.014Z,21.07
2023-02-02T01:10:30.362Z,21.16
2023-02-02T01:12:31.665Z,21.26
2023-02-02T01:14:32.961Z,21.35
2023-02-02T01:16:34.302Z,21.42
2023-02-02T01:18:35.623Z,21.49
2023-02-02T01:20:37.277Z,21.54
2023-02-02T01:22:38.616Z,21.59
2023-02-02T01:24:39.946Z,21.63
2023-02-02T01:26:41.313Z,21.64
2023-02-02T01:28:42.866Z,21.65
2023-02-02T01:30:44.239Z,21.66
2023-02-02T01:32:45.592Z,21.68
2023-02-02T01:34:46.906Z,21.68
2023-02-02T01:36:48.265Z,21.66
2023-02-02T01:38:49.569Z,21.63
2023-02-02T01:40:50.868Z,21.63
2023-02-02T01:42:52.171Z,21.65
2023-02-02T01:44:53.462Z,21.63
2023-02-02T01:46:54.757Z,21.61
2023-02-02T01:48:56.112Z,21.55
2023-02-02T01:50:57.431Z,21.50
2023-02-02T01:52:58.769Z,21.46
2023-02-02T01:55:00.390Z,21.43
2023-02-02T01:57:01.754Z,21.38
2023-02-02T01:59:03.090Z,21.34
2023-02-02T02:01:04.478Z,21.29
2023-02-02T02:03:05.933Z,20.35
2023-02-02T02:05:07.222Z,21.27
2023-02-02T02:07:08.555Z,21.21
2023-02-02T02:09:09.893Z,21.16
2023-02-02T02:11:11.230Z,21.11
2023-02-02T02:13:12.563Z,21.07
2023-02-02T02:15:32.472Z,21.06
2023-02-02T02:17:33.777Z,21.05
2023-02-02T02:19:35.065Z,21.06
2023-02-02T02:21:55.153Z,21.04
2023-02-02T02:24:15.002Z,21.01
2023-02-02T02:26:34.480Z,21.05
2023-02-02T02:28:35.796Z,21.02
2023-02-02T02:30:37.263Z,20.96
2023-02-02T02:32:38.673Z,20.95
2023-02-02T02:34:40.005Z,20.93
2023-02-02T02:36:41.327Z,20.96
2023-02-02T02:38:42.675Z,20.97
2023-02-02T02:40:43.981Z,20.96
2023-02-02T02:42:45.317Z,20.98
2023-02-02T02:44:46.614Z,21.01
2023-02-02T02:46:47.933Z,21.09
2023-02-02T02:48:50.487Z,21.14
2023-02-02T02:50:51.832Z,21.26
2023-02-02T02:52:53.181Z,21.33
2023-02-02T02:54:54.592Z,21.34
2023-02-02T02:56:55.949Z,21.35
2023-02-02T02:58:57.302Z,21.32
2023-02-02T03:00:58.661Z,21.27
2023-02-02T03:02:59.953Z,21.20
2023-02-02T03:05:01.237Z,21.15
2023-02-02T03:07:02.529Z,21.11
2023-02-02T03:09:03.814Z,21.09
2023-02-02T03:11:05.633Z,21.08
2023-02-02T03:13:06.943Z,21.08
2023-02-02T03:15:08.257Z,21.07
2023-02-02T03:17:09.580Z,21.06
2023-02-02T03:19:10.881Z,21.08
2023-02-02T03:21:12.175Z,21.08
2023-02-02T03:23:13.516Z,21.06
2023-02-02T03:25:15.976Z,21.06
2023-02-02T03:27:17.278Z,21.07
2023-02-02T03:29:18.620Z,21.07
2023-02-02T03:31:19.969Z,21.04
2023-02-02T03:33:21.350Z,21.04
2023-02-02T03:35:23.315Z,21.03
2023-02-02T03:37:24.761Z,21.02
2023-02-02T03:39:26.065Z,21.02
2023-02-02T03:41:27.360Z,21.03
2023-02-02T03:43:28.665Z,21.02
2023-02-02T03:45:30.213Z,21.03
2023-02-02T03:47:31.516Z,21.02
2023-02-02T03:49:32.858Z,21.00
2023-02-02T03:51:34.172Z,20.97
2023-02-02T03:53:35.507Z,20.98
2023-02-02T03:55:38.974Z,21.01
2023-02-02T03:57:40.266Z,21.01
2023-02-02T03:59:41.621Z,21.01
2023-02-02T04:01:42.946Z,21.04
2023-02-02T04:03:46.266Z,21.05
2023-02-02T04:05:47.594Z,21.05
2023-02-02T04:07:49.301Z,21.07
2023-02-02T04:09:50.607Z,21.11
2023-02-02T04:11:51.950Z,21.12
2023-02-02T04:13:53.248Z,21.14
2023-02-02T04:15:54.696Z,21.15
2023-02-02T04:17:56.057Z,21.15
2023-02-02T04:19:58.504Z,21.16
2023-02-02T04:21:59.805Z,21.18
2023-02-02T04:24:01.103Z,21.21
2023-02-02T04:26:02.502Z,21.21
2023-02-02T04:28:03.812Z,21.21
2023-02-02T04:30:05.865Z,21.22
2023-02-02T04:32:07.188Z,21.21
2023-02-02T04:34:08.523Z,21.20
2023-02-02T04:36:10.429Z,21.18
2023-02-02T04:38:11.736Z,21.18
2023-02-02T04:40:13.036Z,21.20
2023-02-02T04:42:14.328Z,21.20
2023-02-02T04:44:16.088Z,21.18
2023-02-02T04:46:17.379Z,21.19
2023-02-02T04:48:18.677Z,21.17
2023-02-02T04:50:20.055Z,21.14
2023-02-02T04:52:21.402Z,21.12
2023-02-02T04:54:22.734Z,21.11
2023-02-02T04:56:24.030Z,21.07
2023-02-02T04:58:25.328Z,21.06
2023-02-02T05:00:26.713Z,21.08
2023-02-02T05:02:28.017Z,21.08
2023-02-02T05:04:29.383Z,21.05
2023-02-02T05:06:30.912Z,21.01
2023-02-02T05:08:32.237Z,20.96
2023-02-02T05:10:33.576Z,20.89
2023-02-02T05:12:34.936Z,20.83
2023-02-02T05:14:36.256Z,20.78
2023-02-02T05:16:37.620Z,20.76
2023-02-02T05:18:38.961Z,20.74
2023-02-02T05:20:43.470Z,20.71
2023-02-02T05:22:44.773Z,20.71
2023-02-02T05:24:46.685Z,20.77
2023-02-02T05:26:48.054Z,20.83
2023-02-02T05:28:49.394Z,20.92
2023-02-02T05:30:50.799Z,20.94
2023-02-02T05:32:52.142Z,21.00
2023-02-02T05:34:53.443Z,21.04
2023-02-02T05:36:54.766Z,21.11
2023-02-02T05:38:56.176Z,21.16
2023-02-02T05:40:57.518Z,21.19
2023-02-02T05:42:58.839Z,21.19
2023-02-02T05:45:00.183Z,21.26
2023-02-02T05:47:01.552Z,21.36
2023-02-02T05:49:05.007Z,21.41
2023-02-02T05:51:06.339Z,21.40
2023-02-02T05:53:07.763Z,21.43
2023-02-02T05:55:09.768Z,21.43
2023-02-02T05:57:11.095Z,21.42
2023-02-02T05:59:12.381Z,21.39
2023-02-02T06:01:13.676Z,21.37
2023-02-02T06:03:15.235Z,21.32
2023-02-02T06:05:16.660Z,21.27
2023-02-02T06:07:17.950Z,21.27
2023-02-02T06:09:19.282Z,21.27
2023-02-02T06:11:20.577Z,21.24
2023-02-02T06:13:21.931Z,21.20
2023-02-02T06:15:23.445Z,21.20
2023-02-02T06:17:24.952Z,21.16
2023-02-02T06:19:26.292Z,21.12
2023-02-02T06:21:31.047Z,21.10
2023-02-02T06:23:32.394Z,21.07
2023-02-02T06:25:34.507Z,21.07
2023-02-02T06:27:35.874Z,21.04
2023-02-02T06:29:37.225Z,21.04
2023-02-02T06:31:38.552Z,21.04
2023-02-02T06:33:40.210Z,21.01
2023-02-02T06:35:41.541Z,21.01
2023-02-02T06:37:42.835Z,21.04
2023-02-02T06:39:44.128Z,21.02
2023-02-02T06:41:46.719Z,21.00
2023-02-02T06:43:48.063Z,21.00
2023-02-02T06:45:49.414Z,21.01
2023-02-02T06:47:50.752Z,21.04
2023-02-02T06:49:52.064Z,20.08
2023-02-02T06:51:53.357Z,21.06
2023-02-02T06:53:54.695Z,21.09
2023-02-02T06:55:55.991Z,21.17
2023-02-02T06:57:57.692Z,21.21
2023-02-02T06:59:59.293Z,21.24
2023-02-02T07:02:00.604Z,21.25
2023-02-02T07:04:01.901Z,21.28
2023-02-02T07:06:03.202Z,21.29
2023-02-02T07:08:04.499Z,21.29
2023-02-02T07:10:05.794Z,21.37
2023-02-02T07:12:07.113Z,21.39
2023-02-02T07:14:08.473Z,21.42
2023-02-02T07:16:09.926Z,21.40
2023-02-02T07:18:11.273Z,21.36
2023-02-02T07:20:12.568Z,21.32
2023-02-02T07:22:15.402Z,21.28
2023-02-02T07:24:16.695Z,21.26
2023-02-02T07:26:18.039Z,21.25
2023-02-02T07:28:19.390Z,21.19
2023-02-02T07:30:20.809Z,21.18
2023-02-02T07:32:22.203Z,21.13
2023-02-02T07:34:23.581Z,21.11
2023-02-02T07:36:24.901Z,21.08
2023-02-02T07:38:26.204Z,21.09
2023-02-02T07:40:27.515Z,21.07
2023-02-02T07:42:28.884Z,21.20
2023-02-02T07:44:30.190Z,21.07
2023-02-02T07:46:31.599Z,21.16
2023-02-02T07:48:32.952Z,21.07
2023-02-02T07:50:34.251Z,20.94
2023-02-02T07:52:35.582Z,20.86
2023-02-02T07:54:36.913Z,20.82
2023-02-02T07:56:38.355Z,20.77
2023-02-02T07:58:39.649Z,20.75
2023-02-02T08:00:41.081Z,20.74
2023-02-02T08:02:42.453Z,20.73
2023-02-02T08:04:43.810Z,20.75
2023-02-02T08:06:45.107Z,20.77
2023-02-02T08:08:46.445Z,20.84
2023-02-02T08:10:47.752Z,20.95
2023-02-02T08:12:51.768Z,21.06
2023-02-02T08:14:53.224Z,21.11
2023-02-02T08:16:54.548Z,21.15
2023-02-02T08:18:55.902Z,21.22
2023-02-02T08:20:57.239Z,21.28
2023-02-02T08:22:58.525Z,21.34
2023-02-02T08:24:59.833Z,21.34
2023-02-02T08:27:01.220Z,21.25
2023-02-02T08:29:02.555Z,21.28
2023-02-02T08:31:03.859Z,21.30
2023-02-02T08:33:05.175Z,21.30
2023-02-02T08:35:06.499Z,21.30
2023-02-02T08:37:07.839Z,21.28
2023-02-02T08:39:09.182Z,21.22
2023-02-02T08:41:10.521Z,21.20
2023-02-02T08:43:11.821Z,21.19
2023-02-02T08:46:02.036Z,21.18
2023-02-02T08:47:39.146Z,21.12
2023-02-02T08:49:42.484Z,21.04
2023-02-02T08:51:43.805Z,21.00
2023-02-02T08:53:45.134Z,20.96
2023-02-02T08:55:46.434Z,20.93
2023-02-02T08:57:47.755Z,20.87
2023-02-02T08:59:49.058Z,20.83
2023-02-02T09:01:50.470Z,20.79
2023-02-02T09:03:54.952Z,20.76
2023-02-02T09:05:56.263Z,20.72
2023-02-02T09:07:57.560Z,20.70
2023-02-02T09:09:58.846Z,20.68
2023-02-02T09:12:00.148Z,20.65
2023-02-02T09:14:03.098Z,20.62
2023-02-02T09:16:04.415Z,20.58
2023-02-02T09:18:05.700Z,20.56
2023-02-02T09:20:07.106Z,20.55
2023-02-02T09:22:08.419Z,20.55
2023-02-02T09:24:09.786Z,20.55
2023-02-02T09:26:11.492Z,20.57
2023-02-02T09:28:12.775Z,20.61
2023-02-02T09:30:14.099Z,20.68
2023-02-02T09:32:15.484Z,20.73
2023-02-02T09:34:16.865Z,20.79
2023-02-02T09:36:18.232Z,20.84
2023-02-02T09:38:19.581Z,20.87
2023-02-02T09:40:21.254Z,20.94
2023-02-02T09:42:22.571Z,21.02
2023-02-02T09:44:23.906Z,21.07
2023-02-02T09:46:25.943Z,21.09
2023-02-02T09:48:27.366Z,21.11
2023-02-02T09:50:28.726Z,21.13
2023-02-02T09:52:30.145Z,21.14
2023-02-02T09:54:32.448Z,21.13
2023-02-02T09:56:34.060Z,21.13
2023-02-02T09:58:35.516Z,21.14
2023-02-02T10:00:36.861Z,21.13
2023-02-02T10:02:41.310Z,21.13
2023-02-02T10:04:42.598Z,21.12
2023-02-02T10:06:43.922Z,21.10
2023-02-02T10:08:45.254Z,21.10
2023-02-02T10:10:46.589Z,21.06
2023-02-02T10:12:47.902Z,21.03
2023-02-02T10:14:50.702Z,20.98
2023-02-02T10:16:52.019Z,20.96
2023-02-02T10:18:53.327Z,20.91
2023-02-02T10:20:54.646Z,20.87
2023-02-02T10:22:55.955Z,20.83
2023-02-02T10:24:57.275Z,20.80
2023-02-02T10:26:59.181Z,20.76
2023-02-02T10:29:00.592Z,20.71
2023-02-02T10:31:02.347Z,20.68
2023-02-02T10:33:03.715Z,20.66
2023-02-02T10:35:13.595Z,20.67
2023-02-02T10:37:15.750Z,20.64
2023-02-02T10:39:17.046Z,20.61
2023-02-02T10:41:18.493Z,20.59
2023-02-02T10:43:38.937Z,20.58
2023-02-02T10:45:40.315Z,20.60
2023-02-02T10:47:41.689Z,20.63
2023-02-02T10:49:43.022Z,20.66
2023-02-02T10:51:44.374Z,20.69
2023-02-02T10:53:45.679Z,20.69
2023-02-02T10:55:47.026Z,20.70
2023-02-02T10:57:48.386Z,20.74
2023-02-02T10:59:49.719Z,20.79
2023-02-02T11:01:51.177Z,20.87
2023-02-02T11:04:12.440Z,20.95
2023-02-02T11:06:32.430Z,21.01
2023-02-02T11:08:33.772Z,21.08
2023-02-02T11:10:35.075Z,21.08
2023-02-02T11:12:37.275Z,21.12
2023-02-02T11:14:45.188Z,21.13
2023-02-02T11:16:47.386Z,21.13
2023-02-02T11:18:48.800Z,21.12
2023-02-02T11:20:50.636Z,21.14
2023-02-02T11:22:51.938Z,21.13
2023-02-02T11:24:53.370Z,21.12
2023-02-02T11:26:55.830Z,21.13
2023-02-02T11:28:59.980Z,21.10
2023-02-02T11:31:02.416Z,21.13
2023-02-02T11:33:03.804Z,21.08
2023-02-02T11:35:05.112Z,21.06
2023-02-02T11:37:06.447Z,21.07
2023-02-02T11:39:07.741Z,21.04
2023-02-02T11:41:13.783Z,21.03
2023-02-02T11:43:15.122Z,20.99
2023-02-02T11:45:16.426Z,20.97
2023-02-02T11:47:17.723Z,20.90
2023-02-02T11:49:19.148Z,20.86
2023-02-02T11:51:20.506Z,20.80
2023-02-02T11:53:21.861Z,20.77
2023-02-02T11:55:23.208Z,20.75
2023-02-02T11:57:24.554Z,20.74
2023-02-02T11:59:25.848Z,20.71
2023-02-02T12:01:27.284Z,20.66
2023-02-02T12:03:28.664Z,20.64
2023-02-02T12:05:29.996Z,20.62
2023-02-02T12:07:31.318Z,20.60
2023-02-02T12:09:32.655Z,20.56
2023-02-02T12:11:34.214Z,20.56
2023-02-02T12:13:35.550Z,20.54
2023-02-02T12:15:36.913Z,20.54
2023-02-02T12:17:42.956Z,20.56
2023-02-02T12:19:46.968Z,20.58
2023-02-02T12:21:48.335Z,20.62
2023-02-02T12:23:49.640Z,20.64
2023-02-02T12:25:50.986Z,20.69
2023-02-02T12:27:52.313Z,20.75
2023-02-02T12:29:53.656Z,20.78
2023-02-02T12:31:57.900Z,20.83
2023-02-02T12:33:59.227Z,20.86
2023-02-02T12:36:06.475Z,20.87
2023-02-02T12:38:07.799Z,20.89
2023-02-02T12:40:11.366Z,20.92
2023-02-02T12:42:12.807Z,20.95
2023-02-02T12:44:14.146Z,20.98
2023-02-02T12:46:15.520Z,20.95
2023-02-02T12:48:16.897Z,20.98
2023-02-02T12:50:20.949Z,20.99
2023-02-02T12:52:22.248Z,20.98
2023-02-02T12:54:33.671Z,20.97
2023-02-02T12:56:36.626Z,20.97
2023-02-02T12:58:37.930Z,20.98
2023-02-02T13:00:40.133Z,20.97
2023-02-02T13:02:41.562Z,20.92
2023-02-02T13:04:42.900Z,20.93
2023-02-02T13:06:44.251Z,20.92
2023-02-02T13:08:45.578Z,20.89
2023-02-02T13:10:46.904Z,20.87
2023-02-02T13:12:48.222Z,20.83
2023-02-02T13:14:49.521Z,20.84
2023-02-02T13:16:50.870Z,20.81
2023-02-02T13:18:52.198Z,20.77
2023-02-02T13:20:53.623Z,20.73
2023-02-02T13:22:54.946Z,20.73
2023-02-02T13:25:00.189Z,20.70
2023-02-02T13:27:02.523Z,20.69
2023-02-02T13:29:03.983Z,20.69
2023-02-02T13:31:06.502Z,20.69
2023-02-02T13:33:07.940Z,20.68
2023-02-02T13:35:09.247Z,20.68
2023-02-02T13:37:10.545Z,20.65
2023-02-02T13:39:11.919Z,20.62
2023-02-02T13:41:13.564Z,20.52
2023-02-02T13:43:14.952Z,20.46
2023-02-02T13:45:16.322Z,20.35
2023-02-02T13:47:17.670Z,20.26
2023-02-02T13:49:19.073Z,20.21
2023-02-02T13:51:20.380Z,20.18
2023-02-02T13:53:21.688Z,20.17
2023-02-02T13:55:23.067Z,20.19
2023-02-02T13:57:24.392Z,20.24
2023-02-02T13:59:25.750Z,20.33
2023-02-02T14:01:27.135Z,20.45
2023-02-02T14:03:28.551Z,20.52
2023-02-02T14:05:29.899Z,20.61
2023-02-02T14:07:31.206Z,20.72
2023-02-02T14:09:32.516Z,20.77
2023-02-02T14:11:33.847Z,20.82
2023-02-02T14:13:53.842Z,20.85
2023-02-02T14:15:55.288Z,20.89
2023-02-02T14:17:56.715Z,19.94
2023-02-02T14:20:04.060Z,20.95
2023-02-02T14:22:05.528Z,20.97
2023-02-02T14:24:06.822Z,21.00
2023-02-02T14:26:08.221Z,21.01
2023-02-02T14:28:09.677Z,21.01
2023-02-02T14:30:12.911Z,21.01
2023-02-02T14:32:14.223Z,21.01
2023-02-02T14:34:15.526Z,21.02
2023-02-02T14:36:17.032Z,21.03
2023-02-02T14:38:18.392Z,21.02
2023-02-02T14:40:19.690Z,21.03
2023-02-02T14:42:39.944Z,21.03
2023-02-02T14:44:41.234Z,21.03
2023-02-02T14:46:48.210Z,21.02
2023-02-02T14:48:49.835Z,21.00
2023-02-02T14:50:51.166Z,20.95
2023-02-02T14:52:52.464Z,20.95
2023-02-02T14:54:53.762Z,20.91
2023-02-02T14:56:55.144Z,20.86
2023-02-02T14:58:56.442Z,19.84
2023-02-02T15:00:57.790Z,20.78
2023-02-02T15:02:59.138Z,20.74
2023-02-02T15:05:00.479Z,20.72
2023-02-02T15:07:07.793Z,20.69
2023-02-02T15:09:09.136Z,20.65
2023-02-02T15:11:29.036Z,20.63
2023-02-02T15:13:30.370Z,20.60
2023-02-02T15:15:31.985Z,20.57
2023-02-02T15:17:33.359Z,20.54
2023-02-02T15:19:34.729Z,20.51
2023-02-02T15:21:36.091Z,20.50
2023-02-02T15:23:37.391Z,20.49
2023-02-02T15:25:38.814Z,20.50
2023-02-02T15:27:56.288Z,20.49
2023-02-02T15:29:58.090Z,20.51
2023-02-02T15:31:59.516Z,20.54
2023-02-02T15:34:01.218Z,20.57
2023-02-02T15:36:03.580Z,20.61
2023-02-02T15:38:04.907Z,20.67
2023-02-02T15:40:06.223Z,20.71
2023-02-02T15:42:27.199Z,20.78
2023-02-02T15:44:29.880Z,20.83
2023-02-02T15:46:32.400Z,20.86
2023-02-02T15:48:34.771Z,20.90
2023-02-02T15:50:36.108Z,20.94
2023-02-02T15:52:38.164Z,20.97
2023-02-02T15:54:39.572Z,20.98
2023-02-02T15:56:40.887Z,20.98
2023-02-02T15:58:42.280Z,20.99
2023-02-02T16:00:43.763Z,21.00
2023-02-02T16:02:45.141Z,21.00
2023-02-02T16:04:46.671Z,20.98
2023-02-02T16:06:48.015Z,20.98
2023-02-02T16:08:49.312Z,20.96
2023-02-02T16:10:53.655Z,20.95
2023-02-02T16:12:59.275Z,20.93
2023-02-02T16:15:00.584Z,20.90
2023-02-02T16:17:02.161Z,20.89
2023-02-02T16:19:03.740Z,20.84
2023-02-02T16:21:05.035Z,20.81
2023-02-02T16:23:06.881Z,20.79
2023-02-02T16:25:08.244Z,20.75
2023-02-02T16:27:12.600Z,20.74
2023-02-02T16:29:18.457Z,20.69
2023-02-02T16:31:22.719Z,20.66
2023-02-02T16:33:24.072Z,20.63
2023-02-02T16:35:25.911Z,20.62
2023-02-02T16:37:27.546Z,20.58
2023-02-02T16:39:28.863Z,20.58
2023-02-02T16:41:30.262Z,20.54
2023-02-02T16:43:31.672Z,20.52
2023-02-02T16:45:34.011Z,20.51
2023-02-02T16:47:35.566Z,20.51
2023-02-02T16:49:36.946Z,20.49
2023-02-02T16:51:38.278Z,20.49
2023-02-02T16:53:39.611Z,20.50
2023-02-02T16:55:50.575Z,20.51
2023-02-02T16:57:52.406Z,20.52
2023-02-02T16:59:53.736Z,20.55
2023-02-02T17:01:55.144Z,20.58
2023-02-02T17:03:56.586Z,20.60
2023-02-02T17:05:58.514Z,20.65
2023-02-02T17:08:05.428Z,20.71
2023-02-02T17:10:06.771Z,20.76
2023-02-02T17:12:10.710Z,20.77
2023-02-02T17:14:15.663Z,20.80
2023-02-02T17:16:17.041Z,20.83
2023-02-02T17:18:18.363Z,20.84
2023-02-02T17:20:19.695Z,20.85
2023-02-02T17:22:21.065Z,20.88
2023-02-02T17:24:22.422Z,20.89
2023-02-02T17:26:23.760Z,20.90
2023-02-02T17:28:25.087Z,20.90
2023-02-02T17:30:29.376Z,20.91
2023-02-02T17:32:30.710Z,20.93
2023-02-02T17:34:32.117Z,20.93
2023-02-02T17:36:33.429Z,20.88
2023-02-02T17:38:34.745Z,20.86
2023-02-02T17:40:36.314Z,20.87
2023-02-02T17:42:38.537Z,20.84
2023-02-02T17:44:39.868Z,20.83
2023-02-02T17:46:41.241Z,20.82
2023-02-02T17:48:42.769Z,20.79
2023-02-02T17:50:44.136Z,20.77
2023-02-02T17:52:46.069Z,20.74
2023-02-02T17:54:47.455Z,20.70
2023-02-02T17:56:48.753Z,20.68
2023-02-02T17:58:50.049Z,20.65
2023-02-02T18:00:51.375Z,20.64
2023-02-02T18:02:57.041Z,20.62
2023-02-02T18:05:01.596Z,20.58
2023-02-02T18:07:03.775Z,20.56
2023-02-02T18:09:05.099Z,20.53
2023-02-02T18:11:06.448Z,20.51
2023-02-02T18:13:07.802Z,20.51
2023-02-02T18:15:09.140Z,20.52
2023-02-02T18:17:10.474Z,20.50
2023-02-02T18:19:11.766Z,20.50
2023-02-02T18:21:14.140Z,20.49
2023-02-02T18:23:16.386Z,20.50
2023-02-02T18:25:20.680Z,20.51
2023-02-02T18:27:21.998Z,20.53
2023-02-02T18:29:23.335Z,20.55
2023-02-02T18:31:24.769Z,20.59
2023-02-02T18:33:26.223Z,20.62
2023-02-02T18:35:28.338Z,20.68
2023-02-02T18:37:29.695Z,20.72
2023-02-02T18:39:31.063Z,20.70
2023-02-02T18:41:35.401Z,20.65
2023-02-02T18:43:36.746Z,20.54
2023-02-02T18:45:38.084Z,18.45
2023-02-02T18:47:41.354Z,20.55
2023-02-02T18:49:45.685Z,21.23
2023-02-02T18:51:50.109Z,21.55
2023-02-02T18:53:51.434Z,21.98
2023-02-02T18:55:52.777Z,21.96
2023-02-02T18:58:00.189Z,22.26
2023-02-02T19:00:02.250Z,22.13
2023-02-02T19:02:03.598Z,21.81
2023-02-02T19:04:05.147Z,21.72
2023-02-02T19:06:25.382Z,22.16
2023-02-02T19:08:30.683Z,22.24
2023-02-02T19:10:32.999Z,22.59
2023-02-02T19:12:34.387Z,22.51
2023-02-02T19:14:38.537Z,23.13
2023-02-02T19:16:39.902Z,22.91
2023-02-02T19:18:42.859Z,22.48
2023-02-02T19:20:44.160Z,22.25
2023-02-02T19:22:48.217Z,22.23
2023-02-02T19:24:52.311Z,22.20
2023-02-02T19:26:53.791Z,22.22
2023-02-02T19:28:58.028Z,22.64
2023-02-02T19:30:59.462Z,22.46
2023-02-02T19:33:00.880Z,22.61
2023-02-02T19:35:02.696Z,22.40
2023-02-02T19:37:04.039Z,22.41
2023-02-02T19:39:05.387Z,22.41
2023-02-02T19:41:07.621Z,22.44
2023-02-02T19:43:08.967Z,22.43
2023-02-02T19:45:10.290Z,22.47
2023-02-02T19:47:11.617Z,22.50
2023-02-02T19:49:13.038Z,22.14
2023-02-02T19:51:14.331Z,21.96
2023-02-02T19:53:15.702Z,22.01
2023-02-02T19:55:16.994Z,22.36
2023-02-02T19:57:18.411Z,22.21
2023-02-02T19:59:19.998Z,22.43
2023-02-02T20:01:21.341Z,22.77
2023-02-02T20:03:22.763Z,22.55
2023-02-02T20:05:24.172Z,22.38
2023-02-02T20:07:26.487Z,22.32
2023-02-02T20:09:30.698Z,22.32
2023-02-02T20:11:32.369Z,22.13
2023-02-02T20:13:33.759Z,21.99
2023-02-02T20:15:38.094Z,22.09
2023-02-02T20:17:39.383Z,22.20
2023-02-02T20:19:40.903Z,22.31
2023-02-02T20:21:42.223Z,22.85
2023-02-02T20:23:43.534Z,22.69
2023-02-02T20:25:48.387Z,22.54
2023-02-02T20:27:53.663Z,22.50
2023-02-02T20:29:55.037Z,22.92
2023-02-02T20:31:56.461Z,23.52
2023-02-02T20:33:58.036Z,23.35
2023-02-02T20:35:59.399Z,23.41
2023-02-02T20:38:00.733Z,23.11
2023-02-02T20:40:02.258Z,22.47
2023-02-02T20:42:03.607Z,22.48
2023-02-02T20:44:04.985Z,22.81
2023-02-02T20:46:06.462Z,22.66
2023-02-02T20:48:09.669Z,22.67
2023-02-02T20:50:11.908Z,22.70
2023-02-02T20:52:18.171Z,22.68
2023-02-02T20:54:19.969Z,22.65
2023-02-02T20:56:21.300Z,22.59
2023-02-02T20:58:23.358Z,22.61
2023-02-02T21:00:27.543Z,22.29
2023-02-02T21:02:29.107Z,22.00
2023-02-02T21:04:30.479Z,22.20
2023-02-02T21:06:31.783Z,22.33
2023-02-02T21:08:33.085Z,22.43
2023-02-02T21:10:34.571Z,22.41
2023-02-02T21:12:35.938Z,22.42
2023-02-02T21:14:37.297Z,22.45
2023-02-02T21:16:38.682Z,22.39
2023-02-02T21:18:40.043Z,22.39
2023-02-02T21:20:41.335Z,22.52
2023-02-02T21:22:42.679Z,22.44
2023-02-02T21:24:44.026Z,23.07
2023-02-02T21:26:45.379Z,23.27
2023-02-02T21:28:46.697Z,23.31
2023-02-02T21:30:48.267Z,23.13
2023-02-02T21:32:49.642Z,22.51
2023-02-02T21:34:50.938Z,22.07
2023-02-02T21:36:56.056Z,22.01
2023-02-02T21:38:57.390Z,22.30
2023-02-02T21:40:59.593Z,21.99
2023-02-02T21:43:00.999Z,22.51
2023-02-02T21:45:02.288Z,22.63
2023-02-02T21:47:03.587Z,22.40
2023-02-02T21:49:04.980Z,22.31
2023-02-02T21:51:06.307Z,22.41
2023-02-02T21:53:07.651Z,22.55
2023-02-02T21:55:09.256Z,22.76
2023-02-02T21:57:10.597Z,22.76
2023-02-02T21:59:11.934Z,22.71
2023-02-02T22:01:13.303Z,18.51
2023-02-02T22:03:14.606Z,16.84
2023-02-02T22:05:16.190Z,18.32
2023-02-02T22:07:17.581Z,19.90
2023-02-02T22:09:19.032Z,20.67
2023-02-02T22:11:20.398Z,21.04
2023-02-02T22:13:21.910Z,21.19
2023-02-02T22:15:23.358Z,21.32
2023-02-02T22:17:24.763Z,21.46
2023-02-02T22:19:26.105Z,21.53
2023-02-02T22:21:27.400Z,21.59
2023-02-02T22:23:28.726Z,21.64
2023-02-02T22:25:30.025Z,21.66
2023-02-02T22:27:33.102Z,21.71
2023-02-02T22:29:34.475Z,21.74
2023-02-02T22:31:35.872Z,21.73
2023-02-02T22:33:37.288Z,21.76
2023-02-02T22:35:38.579Z,21.73
2023-02-02T22:37:39.915Z,21.73
2023-02-02T22:39:42.891Z,21.73
2023-02-02T22:41:45.097Z,21.72
2023-02-02T22:43:46.416Z,21.69
2023-02-02T22:45:47.777Z,21.69
2023-02-02T22:47:49.138Z,21.63
2023-02-02T22:49:50.444Z,21.55
2023-02-02T22:51:54.068Z,21.54
2023-02-02T22:53:55.588Z,21.54
2023-02-02T22:55:56.930Z,21.51
2023-02-02T22:57:58.227Z,21.47
2023-02-02T22:59:59.559Z,21.48
2023-02-02T23:02:00.891Z,21.41
2023-02-02T23:04:02.246Z,21.34
2023-02-02T23:06:03.623Z,21.28
2023-02-02T23:08:04.918Z,21.22
2023-02-02T23:10:06.256Z,21.21
2023-02-02T23:12:07.592Z,21.18
2023-02-02T23:14:08.957Z,21.15
2023-02-02T23:16:10.915Z,21.13
2023-02-02T23:18:12.299Z,21.11
2023-02-02T23:20:13.595Z,21.09
2023-02-02T23:22:14.898Z,21.07
2023-02-02T23:24:16.246Z,21.06
2023-02-02T23:26:17.539Z,21.06
2023-02-02T23:28:18.983Z,21.04
2023-02-02T23:30:22.233Z,21.03
2023-02-02T23:32:23.549Z,21.01
2023-02-02T23:34:24.848Z,21.00
2023-02-02T23:36:26.150Z,21.00
2023-02-02T23:38:27.461Z,21.01
2023-02-02T23:40:29.081Z,21.00
2023-02-02T23:42:30.602Z,21.02
2023-02-02T23:44:31.933Z,21.05
2023-02-02T23:46:33.272Z,21.10
2023-02-02T23:48:34.628Z,21.14
2023-02-02T23:50:37.978Z,21.18
2023-02-02T23:52:39.462Z,21.23
2023-02-02T23:54:40.768Z,21.28
2023-02-02T23:56:42.138Z,21.34
2023-02-02T23:58:43.476Z,21.38
